Time;durP1;ratioP1;P1;durP2;ratioP2;P2;SDS_P1;SDS_P2;PMS_P1;PMS_P2;Temp;Humidity;BMP_temperature;BMP_pressure;BME280_temperature;BME280_humidity;BME280_pressure;Samples;Min_cycle;Max_cycle;Signal;HPM_P1;HPM_P2
2022/06/08 00:01:59;;;;;;;12.95;11.20;;;18.20;99.90;;;;;;4093226;28;20054;-68
2022/06/08 00:04:01;;;;;;;18.90;13.55;;;18.20;99.90;;;;;;4096117;28;20039;-67
2022/06/08 00:06:02;;;;;;;14.52;12.68;;;18.10;99.90;;;;;;4095748;29;20039;-67
2022/06/08 00:08:03;;;;;;;17.50;13.23;;;18.10;99.90;;;;;;4096236;29;20032;-67
2022/06/08 00:10:04;;;;;;;15.45;12.85;;;18.10;99.90;;;;;;4096055;29;20027;-68
2022/06/08 00:12:06;;;;;;;17.88;14.95;;;18.20;99.90;;;;;;4095508;29;20731;-67
2022/06/08 00:14:07;;;;;;;16.38;13.77;;;18.20;99.90;;;;;;4095754;29;20119;-67
2022/06/08 00:16:07;;;;;;;16.90;14.20;;;18.20;99.90;;;;;;4094866;28;20525;-67
2022/06/08 00:18:10;;;;;;;17.65;14.30;;;18.20;99.90;;;;;;4095684;29;20473;-67
2022/06/08 00:20:11;;;;;;;;;;;18.20;99.90;;;;;;4078861;29;20142;-69
2022/06/08 00:22:12;;;;;;;17.30;14.25;;;18.20;99.90;;;;;;4095591;29;20329;-67
2022/06/08 00:24:12;;;;;;;17.42;14.35;;;18.20;99.90;;;;;;4095640;28;20094;-67
2022/06/08 00:26:13;;;;;;;18.63;15.23;;;18.20;99.90;;;;;;4094925;29;20217;-67
2022/06/08 00:28:14;;;;;;;18.75;15.35;;;18.20;99.90;;;;;;4094611;29;20431;-67
2022/06/08 00:30:15;;;;;;;18.95;15.45;;;18.20;99.90;;;;;;4095145;29;20093;-67
2022/06/08 00:32:17;;;;;;;20.60;17.02;;;18.20;99.90;;;;;;4095772;29;20059;-67
2022/06/08 00:34:18;;;;;;;20.73;15.52;;;18.20;99.90;;;;;;4078587;29;20091;-67
2022/06/08 00:36:18;;;;;;;21.23;16.08;;;18.20;99.90;;;;;;4094820;29;20032;-67
2022/06/08 00:38:19;;;;;;;17.00;14.82;;;18.20;99.90;;;;;;4095662;29;20517;-71
2022/06/08 00:40:24;;;;;;;15.85;13.98;;;18.20;99.90;;;;;;4095069;29;20450;-67
2022/06/08 00:42:26;;;;;;;16.75;14.73;;;18.20;99.90;;;;;;4095284;29;20035;-68
2022/06/08 00:44:28;;;;;;;16.63;14.57;;;18.20;99.90;;;;;;4094438;29;20035;-67
2022/06/08 00:46:28;;;;;;;17.95;14.77;;;18.10;99.90;;;;;;4095000;29;20039;-67
2022/06/08 00:48:33;;;;;;;14.57;12.75;;;18.10;99.90;;;;;;4095565;29;20035;-67
2022/06/08 00:50:43;;;;;;;15.50;13.18;;;18.10;99.90;;;;;;4093059;29;20118;-67
2022/06/08 00:52:46;;;;;;;14.23;12.07;;;18.10;99.90;;;;;;4095345;29;20066;-67
2022/06/08 00:54:49;;;;;;;;;;;18.10;99.90;;;;;;4095484;29;20494;-67
2022/06/08 00:56:55;;;;;;;12.73;11.43;;;18.00;99.90;;;;;;4094992;29;20373;-69
2022/06/08 00:58:58;;;;;;;15.18;11.65;;;18.00;99.90;;;;;;4095457;29;20180;-67
2022/06/08 01:00:59;;;;;;;13.88;12.10;;;18.00;99.90;;;;;;4078220;29;20509;-67
2022/06/08 01:03:00;;;;;;;15.63;12.15;;;18.00;99.90;;;;;;4078468;29;20506;-67
2022/06/08 01:05:25;;;;;;;18.73;14.60;;;18.00;99.90;;;;;;4094952;29;20027;-67
2022/06/08 01:07:25;;;;;;;18.05;14.68;;;17.80;99.90;;;;;;4094160;29;20030;-68
2022/06/08 01:09:37;;;;;;;16.95;13.98;;;17.70;99.90;;;;;;4095324;29;20042;-67
2022/06/08 01:11:43;;;;;;;16.52;14.30;;;17.60;99.90;;;;;;4095066;29;20031;-67
2022/06/08 01:13:44;;;;;;;18.73;15.18;;;17.50;99.90;;;;;;4093437;29;20029;-67
2022/06/08 01:15:44;;;;;;;18.38;15.05;;;17.40;99.90;;;;;;4094545;29;20565;-67
2022/06/08 01:17:45;;;;;;;17.63;14.85;;;17.30;99.90;;;;;;4096927;28;20031;-67
2022/06/08 01:19:48;;;;;;;16.58;13.88;;;17.30;99.90;;;;;;4097966;28;20047;-67
2022/06/08 01:21:49;;;;;;;;;;;17.20;99.90;;;;;;4095455;29;20080;-67
2022/06/08 01:24:00;;;;;;;16.88;14.18;;;17.20;99.90;;;;;;4095009;29;19917;-68
2022/06/08 01:26:16;;;;;;;16.33;13.25;;;17.20;99.90;;;;;;4094777;29;20035;-67
2022/06/08 01:28:27;;;;;;;16.98;13.93;;;17.10;99.90;;;;;;4095338;28;20505;-67
2022/06/08 01:30:37;;;;;;;19.02;13.68;;;17.00;99.90;;;;;;4097105;28;20106;-67
2022/06/08 01:32:56;;;;;;;19.13;15.15;;;17.10;99.90;;;;;;4098777;29;20166;-67
2022/06/08 01:35:06;;;;;;;20.35;15.52;;;17.00;99.90;;;;;;4086250;29;20039;-67
2022/06/08 01:37:14;;;;;;;15.95;13.23;;;17.00;99.90;;;;;;4098320;29;20407;-67
2022/06/08 01:39:44;;;;;;;18.27;13.98;;;17.10;99.90;;;;;;4098504;29;20039;-67
2022/06/08 01:42:05;;;;;;;18.10;14.60;;;17.10;99.90;;;;;;4097687;29;20039;-67
2022/06/08 01:47:13;;;;;;;;;;;17.20;99.90;;;;;;4082313;29;20119;-67
2022/06/08 01:49:22;;;;;;;19.60;14.77;;;17.20;99.90;;;;;;4082593;29;19918;-67
2022/06/08 01:51:56;;;;;;;19.33;14.63;;;17.20;99.90;;;;;;4093028;29;20105;-67
2022/06/08 01:54:11;;;;;;;21.15;16.10;;;17.30;99.90;;;;;;4097183;29;20062;-67
2022/06/08 01:56:19;;;;;;;22.33;16.27;;;17.30;99.90;;;;;;4097472;29;20114;-67
2022/06/08 01:58:26;;;;;;;23.95;17.45;;;17.30;99.90;;;;;;4097102;29;20118;-67
2022/06/08 02:00:34;;;;;;;20.98;16.17;;;17.30;99.90;;;;;;4096108;28;20518;-68
2022/06/08 02:02:38;;;;;;;21.95;16.23;;;17.40;99.90;;;;;;4096921;28;20039;-67
2022/06/08 02:04:52;;;;;;;21.08;16.08;;;17.30;99.90;;;;;;4097774;29;20490;-67
2022/06/08 02:07:09;;;;;;;22.42;16.58;;;17.40;99.90;;;;;;4096604;28;20447;-68
2022/06/08 02:09:22;;;;;;;18.25;14.50;;;17.40;99.90;;;;;;4081364;29;20036;-67
2022/06/08 02:11:25;;;;;;;16.73;12.98;;;17.40;99.90;;;;;;4089221;29;20435;-68
2022/06/08 02:13:47;;;;;;;21.20;15.30;;;17.40;99.90;;;;;;4097477;29;20039;-68
2022/06/08 02:15:52;;;;;;;20.10;14.65;;;17.40;99.90;;;;;;4097525;29;20087;-67
2022/06/08 02:17:57;;;;;;;19.33;13.18;;;17.30;99.90;;;;;;4097124;29;20028;-67
2022/06/08 02:20:15;;;;;;;18.95;13.93;;;17.30;99.90;;;;;;4097721;29;20043;-68
2022/06/08 02:22:44;;;;;;;18.08;13.38;;;17.30;99.90;;;;;;4093121;29;20099;-67
2022/06/08 02:25:11;;;;;;;20.10;13.82;;;17.40;99.90;;;;;;4093389;29;20063;-67
2022/06/08 02:27:34;;;;;;;19.25;13.23;;;17.30;99.90;;;;;;4097024;29;20486;-67
2022/06/08 02:29:37;;;;;;;15.88;12.07;;;17.30;99.90;;;;;;4097444;29;20040;-67
2022/06/08 02:31:46;;;;;;;;;;;17.30;99.90;;;;;;4097110;29;20039;-67
2022/06/08 02:36:45;;;;;;;16.70;12.50;;;17.30;99.90;;;;;;4096545;29;20031;-67
2022/06/08 02:38:53;;;;;;;16.93;12.27;;;17.30;99.90;;;;;;4093293;29;20046;-67
2022/06/08 02:40:57;;;;;;;16.15;12.48;;;17.30;99.90;;;;;;4095690;28;20162;-67
2022/06/08 02:43:07;;;;;;;16.70;12.23;;;17.20;99.90;;;;;;4096812;29;20389;-67
2022/06/08 02:45:22;;;;;;;18.50;12.25;;;17.20;99.90;;;;;;4097004;29;20031;-67
2022/06/08 02:47:30;;;;;;;13.82;10.85;;;17.20;99.90;;;;;;4097157;28;20087;-67
2022/06/08 02:49:34;;;;;;;15.13;11.68;;;17.30;99.90;;;;;;4097721;28;20363;-67
2022/06/08 02:51:40;;;;;;;15.20;10.75;;;17.30;99.90;;;;;;4097469;28;20031;-67
2022/06/08 02:53:55;;;;;;;15.43;11.98;;;17.30;99.90;;;;;;4096848;29;24713;-67
2022/06/08 02:56:08;;;;;;;15.73;11.65;;;17.30;99.90;;;;;;4096102;29;20051;-68
2022/06/08 02:58:18;;;;;;;17.27;12.15;;;17.30;99.90;;;;;;4096886;29;20479;-67
2022/06/08 03:00:24;;;;;;;15.82;11.88;;;17.30;99.90;;;;;;4096399;29;20090;-67
2022/06/08 03:02:30;;;;;;;20.10;12.40;;;17.30;99.90;;;;;;4096471;29;20046;-68
2022/06/08 03:04:49;;;;;;;18.92;13.30;;;17.20;99.90;;;;;;4097163;29;20040;-67
2022/06/08 03:06:55;;;;;;;18.83;13.38;;;17.20;99.90;;;;;;4080932;29;20032;-67
2022/06/08 03:08:59;;;;;;;18.90;13.35;;;17.20;99.90;;;;;;4093983;29;20027;-67
2022/06/08 03:11:04;;;;;;;18.73;13.85;;;17.20;99.90;;;;;;4096139;29;20040;-67
2022/06/08 03:13:13;;;;;;;23.05;14.88;;;17.20;99.90;;;;;;4086555;28;20027;-67
2022/06/08 03:15:17;;;;;;;22.20;15.10;;;17.20;99.90;;;;;;4096274;29;20090;-67
2022/06/08 03:17:23;;;;;;;23.98;15.55;;;17.30;99.90;;;;;;4097058;29;20023;-67
2022/06/08 03:19:25;;;;;;;22.92;15.32;;;17.30;99.90;;;;;;4096395;29;20043;-68
2022/06/08 03:21:27;;;;;;;24.17;15.52;;;17.30;99.90;;;;;;4095749;29;20113;-68
2022/06/08 03:23:28;;;;;;;23.58;15.25;;;17.30;99.90;;;;;;4096852;29;20394;-67
2022/06/08 03:25:29;;;;;;;20.80;13.88;;;17.30;99.90;;;;;;4096221;29;20050;-67
2022/06/08 03:27:29;;;;;;;27.42;16.33;;;17.30;99.90;;;;;;4096879;29;20487;-67
2022/06/08 03:29:31;;;;;;;21.23;14.95;;;17.30;99.90;;;;;;4096161;29;20050;-68
2022/06/08 03:31:32;;;;;;;20.70;13.52;;;17.30;99.90;;;;;;4095930;29;20043;-67
2022/06/08 03:33:33;;;;;;;21.15;13.98;;;17.30;99.90;;;;;;4079631;29;20038;-67
2022/06/08 03:35:33;;;;;;;18.20;12.80;;;17.30;99.90;;;;;;4096132;29;20491;-67
2022/06/08 03:37:34;;;;;;;18.52;13.10;;;17.20;99.90;;;;;;4096523;29;20391;-67
2022/06/08 03:39:35;;;;;;;17.20;12.18;;;17.20;99.90;;;;;;4096427;29;20039;-67
2022/06/08 03:41:36;;;;;;;18.65;11.85;;;17.20;99.90;;;;;;4095649;29;20039;-67
2022/06/08 03:43:38;;;;;;;13.18;10.05;;;17.20;99.90;;;;;;4096471;29;20402;-67
2022/06/08 03:45:44;;;;;;;14.77;11.32;;;17.10;99.90;;;;;;4095988;29;20042;-67
2022/06/08 03:47:48;;;;;;;13.45;10.45;;;17.10;99.90;;;;;;4096260;29;22523;-67
2022/06/08 03:49:50;;;;;;;13.85;9.57;;;17.10;99.90;;;;;;4096513;28;20039;-67
2022/06/08 03:51:54;;;;;;;12.80;9.63;;;17.10;99.90;;;;;;4095198;28;20045;-67
2022/06/08 03:54:01;;;;;;;10.52;8.40;;;17.10;99.90;;;;;;4095811;29;20062;-67
2022/06/08 03:56:05;;;;;;;9.13;7.82;;;17.10;99.90;;;;;;4095638;29;20119;-67
2022/06/08 03:58:06;;;;;;;12.00;8.00;;;17.10;99.90;;;;;;4096501;29;20031;-67
2022/06/08 04:00:08;;;;;;;11.57;8.25;;;17.10;99.90;;;;;;4095688;29;20043;-67
2022/06/08 04:02:09;;;;;;;8.57;6.82;;;17.10;99.90;;;;;;4077718;29;20085;-67
2022/06/08 04:04:11;;;;;;;8.95;7.00;;;17.10;99.90;;;;;;4091382;28;20110;-67
2022/06/08 04:06:11;;;;;;;9.02;7.18;;;17.00;99.90;;;;;;4086591;29;20035;-66
2022/06/08 04:08:12;;;;;;;11.60;7.57;;;17.10;99.90;;;;;;4095412;29;21016;-67
2022/06/08 04:10:13;;;;;;;6.82;6.13;;;17.00;99.90;;;;;;4095001;29;20047;-67
2022/06/08 04:12:14;;;;;;;7.20;6.35;;;17.00;99.90;;;;;;4095426;29;20034;-67
2022/06/08 04:14:14;;;;;;;7.45;6.53;;;17.00;99.90;;;;;;4093742;28;20039;-67
2022/06/08 04:16:15;;;;;;;8.02;6.35;;;16.90;99.90;;;;;;4094252;28;20389;-67
2022/06/08 04:18:19;;;;;;;10.57;5.90;;;16.90;99.90;;;;;;4096319;29;20486;-67
2022/06/08 04:20:20;;;;;;;13.10;6.28;;;16.90;99.90;;;;;;4094810;29;20070;-67
2022/06/08 04:22:22;;;;;;;7.90;6.07;;;16.90;99.90;;;;;;4095274;29;20031;-67
2022/06/08 04:24:25;;;;;;;7.05;5.35;;;16.90;99.90;;;;;;4095188;29;20043;-70
2022/06/08 04:26:26;;;;;;;;;;;16.90;99.90;;;;;;4095547;29;20118;-69
2022/06/08 04:28:27;;;;;;;8.02;5.53;;;16.90;99.90;;;;;;4095823;28;19918;-68
2022/06/08 04:30:27;;;;;;;7.70;5.70;;;16.80;99.90;;;;;;4095424;29;20599;-68
2022/06/08 04:32:28;;;;;;;9.55;5.90;;;16.80;99.90;;;;;;4096045;29;20059;-67
2022/06/08 04:34:28;;;;;;;5.90;5.05;;;16.80;99.90;;;;;;4096170;29;20035;-67
2022/06/08 04:36:29;;;;;;;6.78;4.97;;;16.80;99.90;;;;;;4094847;29;20040;-67
2022/06/08 04:38:30;;;;;;;7.20;5.10;;;16.80;99.90;;;;;;4095703;29;20074;-67
2022/06/08 04:40:33;;;;;;;6.53;4.73;;;16.80;99.90;;;;;;4092081;29;20070;-67
2022/06/08 04:42:34;;;;;;;7.22;5.03;;;16.80;99.90;;;;;;4078343;29;20040;-67
2022/06/08 04:44:36;;;;;;;6.10;4.30;;;16.80;99.90;;;;;;4094029;28;20093;-67
2022/06/08 04:46:37;;;;;;;7.07;4.88;;;16.80;99.90;;;;;;4094493;28;20035;-67
2022/06/08 04:48:38;;;;;;;8.05;4.57;;;16.80;99.90;;;;;;4095681;29;20114;-67
2022/06/08 04:50:39;;;;;;;6.07;4.13;;;16.80;99.90;;;;;;4094919;29;20035;-68
2022/06/08 04:52:40;;;;;;;8.63;4.75;;;16.90;99.90;;;;;;4095605;29;20043;-67
2022/06/08 04:54:40;;;;;;;5.70;4.03;;;16.80;99.90;;;;;;4095665;29;20553;-68
2022/06/08 04:56:41;;;;;;;7.00;3.95;;;16.80;99.90;;;;;;4094673;28;20028;-68
2022/06/08 04:58:42;;;;;;;6.43;4.20;;;16.80;99.90;;;;;;4094931;28;20039;-68
2022/06/08 05:00:43;;;;;;;5.25;4.00;;;16.90;99.90;;;;;;4095155;29;20031;-68
2022/06/08 05:02:44;;;;;;;5.95;4.13;;;17.00;99.90;;;;;;4096064;28;20050;-68
2022/06/08 05:04:45;;;;;;;8.48;4.22;;;17.00;99.90;;;;;;4095479;28;20119;-68
2022/06/08 05:06:47;;;;;;;5.15;3.70;;;16.90;99.90;;;;;;4091756;28;20066;-68
2022/06/08 05:08:48;;;;;;;4.47;3.42;;;16.90;99.90;;;;;;4074955;29;20063;-68
2022/06/08 05:10:50;;;;;;;4.53;3.50;;;16.90;99.90;;;;;;4094599;28;20035;-68
2022/06/08 05:12:51;;;;;;;6.47;4.00;;;17.00;99.90;;;;;;4079266;29;20123;-68
2022/06/08 05:14:51;;;;;;;6.32;3.53;;;16.90;99.90;;;;;;4094502;28;20357;-68
2022/06/08 05:16:52;;;;;;;6.20;3.72;;;17.00;99.90;;;;;;4092590;28;20565;-68
2022/06/08 05:18:52;;;;;;;7.40;3.63;;;17.00;99.90;;;;;;4094487;28;20047;-68
2022/06/08 05:20:54;;;;;;;8.10;3.63;;;16.90;99.90;;;;;;4094242;28;20046;-68
2022/06/08 05:22:54;;;;;;;5.38;3.58;;;16.90;99.90;;;;;;4092874;28;20082;-70
2022/06/08 05:24:55;;;;;;;4.45;3.60;;;16.90;99.90;;;;;;4095090;28;20511;-68
2022/06/08 05:26:56;;;;;;;5.90;3.42;;;16.90;99.90;;;;;;4088996;28;20474;-70
2022/06/08 05:28:56;;;;;;;6.72;3.58;;;16.90;99.90;;;;;;4094280;28;20493;-69
2022/06/08 05:30:57;;;;;;;7.18;3.88;;;16.90;99.90;;;;;;4093566;28;20031;-68
2022/06/08 05:32:58;;;;;;;7.82;3.70;;;17.00;99.90;;;;;;4094386;28;20093;-68
2022/06/08 05:34:59;;;;;;;7.07;4.15;;;16.90;99.90;;;;;;4094726;28;20031;-68
2022/06/08 05:36:59;;;;;;;7.93;4.63;;;16.90;99.90;;;;;;4093846;28;20058;-68
2022/06/08 05:39:00;;;;;;;5.72;3.95;;;16.90;99.90;;;;;;4094346;28;20031;-68
2022/06/08 05:41:01;;;;;;;8.10;4.25;;;16.90;99.90;;;;;;4093984;28;20063;-68
2022/06/08 05:43:02;;;;;;;6.55;4.03;;;16.90;99.90;;;;;;4092918;28;20035;-68
2022/06/08 05:45:05;;;;;;;9.02;4.80;;;17.00;99.90;;;;;;4094100;28;20020;-69
2022/06/08 05:47:06;;;;;;;6.32;4.25;;;17.00;99.90;;;;;;4093924;28;20038;-68
2022/06/08 05:49:06;;;;;;;9.77;3.83;;;17.00;99.90;;;;;;4095171;28;20063;-68
2022/06/08 05:51:07;;;;;;;6.50;3.65;;;17.10;99.90;;;;;;4094846;28;20505;-68
2022/06/08 05:53:08;;;;;;;7.53;3.80;;;17.10;99.90;;;;;;4094135;28;20525;-68
2022/06/08 05:55:09;;;;;;;7.47;4.03;;;17.10;99.90;;;;;;4091436;28;20139;-69
2022/06/08 05:57:10;;;;;;;10.05;3.78;;;17.10;99.90;;;;;;4077866;29;20068;-68
2022/06/08 05:59:11;;;;;;;8.27;3.38;;;17.10;99.90;;;;;;4095193;28;20454;-68
2022/06/08 06:01:12;;;;;;;6.13;4.05;;;17.20;99.90;;;;;;4094375;28;20061;-68
2022/06/08 06:03:13;;;;;;;5.47;3.30;;;17.30;99.90;;;;;;4094488;28;20394;-68
2022/06/08 06:05:16;;;;;;;6.18;4.07;;;17.30;99.90;;;;;;4094523;28;20047;-68
2022/06/08 06:07:18;;;;;;;6.38;3.70;;;17.30;99.90;;;;;;4093870;28;20066;-68
2022/06/08 06:09:19;;;;;;;6.93;3.67;;;17.30;99.90;;;;;;4078882;29;20051;-68
2022/06/08 06:11:20;;;;;;;7.90;3.72;;;17.40;99.90;;;;;;4093771;28;20058;-68
2022/06/08 06:13:21;;;;;;;4.88;3.20;;;17.50;99.90;;;;;;4094589;28;20426;-68
2022/06/08 06:15:25;;;;;;;10.60;3.72;;;17.50;99.90;;;;;;4094336;28;20093;-68
2022/06/08 06:17:26;;;;;;;5.03;3.60;;;17.60;99.90;;;;;;4093979;28;20039;-68
2022/06/08 06:19:26;;;;;;;4.50;3.20;;;17.60;99.90;;;;;;4094027;28;20086;-69
2022/06/08 06:21:27;;;;;;;5.85;3.30;;;17.80;99.90;;;;;;4093359;28;20674;-69
2022/06/08 06:23:28;;;;;;;6.93;3.65;;;17.80;99.90;;;;;;4085170;28;20138;-68
2022/06/08 06:25:29;;;;;;;4.95;3.05;;;17.80;99.90;;;;;;4089545;28;20043;-68
2022/06/08 06:27:29;;;;;;;4.97;3.47;;;17.90;99.90;;;;;;4093468;28;20403;-68
2022/06/08 06:29:30;;;;;;;7.53;3.60;;;17.90;99.90;;;;;;4087210;28;20091;-68
2022/06/08 06:31:49;;;;;;;7.85;3.03;;;17.80;99.90;;;;;;4093970;28;20035;-68
2022/06/08 06:33:50;;;;;;;5.32;3.28;;;17.90;99.90;;;;;;4094046;29;20126;-68
2022/06/08 06:35:50;;;;;;;5.47;3.10;;;18.00;99.90;;;;;;4092728;29;20446;-68
2022/06/08 06:37:52;;;;;;;5.70;3.47;;;18.00;99.90;;;;;;4093730;28;20526;-68
2022/06/08 06:39:53;;;;;;;5.05;2.92;;;18.10;99.90;;;;;;4093484;28;20043;-68
2022/06/08 06:41:54;;;;;;;4.18;3.17;;;18.10;99.90;;;;;;4075879;29;20046;-68
2022/06/08 06:43:55;;;;;;;4.68;3.17;;;18.10;99.90;;;;;;4092524;28;20049;-68
2022/06/08 06:45:56;;;;;;;4.70;3.05;;;18.20;99.90;;;;;;4086154;28;20130;-69
2022/06/08 06:47:56;;;;;;;5.75;3.50;;;18.20;99.90;;;;;;4090879;28;20035;-70
2022/06/08 06:49:57;;;;;;;7.00;3.20;;;18.30;99.90;;;;;;4091285;28;20043;-69
2022/06/08 06:51:58;;;;;;;6.05;3.03;;;18.20;99.90;;;;;;4091078;28;20046;-68
2022/06/08 06:53:58;;;;;;;7.38;3.13;;;18.30;99.90;;;;;;4092723;28;20503;-68
2022/06/08 06:55:59;;;;;;;4.97;2.97;;;18.30;99.90;;;;;;4087869;28;20134;-68
2022/06/08 06:58:00;;;;;;;8.30;3.58;;;18.40;99.90;;;;;;4072288;29;20046;-68
2022/06/08 07:00:01;;;;;;;4.55;2.78;;;18.30;99.90;;;;;;4075351;29;20050;-68
2022/06/08 07:02:02;;;;;;;4.82;3.08;;;18.30;99.90;;;;;;4092578;29;20035;-68
2022/06/08 07:04:03;;;;;;;5.80;2.22;;;18.40;99.90;;;;;;4091713;28;20082;-68
2022/06/08 07:06:03;;;;;;;4.05;2.30;;;18.40;99.90;;;;;;4093140;29;20031;-68
2022/06/08 07:08:05;;;;;;;4.63;2.40;;;18.40;99.90;;;;;;4090366;29;20032;-68
2022/06/08 07:10:05;;;;;;;4.05;2.42;;;18.40;99.90;;;;;;4091132;28;20487;-69
2022/06/08 07:12:07;;;;;;;2.88;2.33;;;18.50;99.90;;;;;;4088800;28;20090;-68
2022/06/08 07:14:12;;;;;;;4.03;2.50;;;18.40;99.90;;;;;;4092219;29;20031;-68
2022/06/08 07:16:13;;;;;;;3.55;2.40;;;18.40;99.90;;;;;;4076037;29;20035;-68
2022/06/08 07:18:15;;;;;;;3.75;1.80;;;18.50;99.90;;;;;;4090777;28;20090;-67
2022/06/08 07:20:18;;;;;;;3.22;2.40;;;18.50;99.90;;;;;;4088999;28;20074;-68
2022/06/08 07:22:19;;;;;;;3.58;2.53;;;18.50;99.90;;;;;;4092279;28;20487;-68
2022/06/08 07:24:33;;;;;;;5.43;2.55;;;18.50;99.90;;;;;;4089984;28;20035;-68
2022/06/08 07:26:34;;;;;;;3.20;2.30;;;18.60;99.90;;;;;;4091431;28;20482;-68
2022/06/08 07:28:35;;;;;;;7.32;2.60;;;18.60;99.90;;;;;;4092705;28;20050;-68
2022/06/08 07:30:36;;;;;;;2.45;1.88;;;18.60;99.90;;;;;;4091231;28;20118;-68
2022/06/08 07:32:37;;;;;;;4.53;2.78;;;18.70;99.90;;;;;;4076156;29;20044;-68
2022/06/08 07:34:38;;;;;;;3.17;2.00;;;18.70;99.90;;;;;;4091303;29;20114;-68
2022/06/08 07:36:38;;;;;;;3.08;2.20;;;18.70;99.90;;;;;;4089852;28;20441;-68
2022/06/08 07:38:40;;;;;;;5.35;2.08;;;18.70;99.90;;;;;;4090560;28;20118;-68
2022/06/08 07:40:41;;;;;;;4.32;1.92;;;18.80;99.90;;;;;;4073542;29;20036;-68
2022/06/08 07:42:41;;;;;;;3.85;2.53;;;18.80;99.90;;;;;;4073065;29;20102;-68
2022/06/08 07:44:42;;;;;;;2.75;1.92;;;18.80;99.90;;;;;;4091016;28;20202;-68
2022/06/08 07:46:43;;;;;;;6.38;2.17;;;18.80;99.90;;;;;;4090070;28;20053;-68
2022/06/08 07:51:03;;;;;;;2.03;1.83;;;18.80;99.90;;;;;;4089956;28;20415;-68
2022/06/08 07:53:04;;;;;;;4.28;1.77;;;18.80;99.90;;;;;;4089553;28;20093;-68
2022/06/08 07:55:05;;;;;;;3.22;1.27;;;18.90;99.90;;;;;;4089797;28;20035;-68
2022/06/08 07:57:07;;;;;;;3.13;1.52;;;18.90;99.90;;;;;;4092455;29;20031;-68
2022/06/08 07:59:07;;;;;;;2.08;1.48;;;18.90;99.90;;;;;;4091875;28;20406;-68
2022/06/08 08:01:08;;;;;;;2.72;1.63;;;18.90;99.90;;;;;;4092481;28;20023;-68
2022/06/08 08:03:10;;;;;;;2.25;1.50;;;18.90;99.90;;;;;;4093033;29;20033;-67
2022/06/08 08:05:13;;;;;;;2.42;1.45;;;18.90;99.90;;;;;;4091726;28;20046;-69
2022/06/08 08:07:14;;;;;;;2.80;1.55;;;19.00;99.90;;;;;;4088546;28;20034;-68
2022/06/08 08:09:17;;;;;;;2.78;1.52;;;18.90;99.90;;;;;;4094133;28;20491;-68
2022/06/08 08:11:18;;;;;;;3.97;1.73;;;19.00;99.90;;;;;;4089793;28;20047;-68
2022/06/08 08:13:18;;;;;;;2.45;1.50;;;19.00;99.90;;;;;;4093852;28;20039;-68
2022/06/08 08:15:19;;;;;;;2.13;1.30;;;19.00;99.90;;;;;;4092126;28;20050;-68
2022/06/08 08:17:20;;;;;;;3.42;1.40;;;19.00;99.90;;;;;;4089279;28;20043;-68
2022/06/08 08:19:23;;;;;;;1.83;1.30;;;19.00;99.90;;;;;;4088880;28;20522;-68
2022/06/08 08:21:24;;;;;;;2.20;1.40;;;18.90;99.90;;;;;;4065901;29;20054;-69
2022/06/08 08:23:24;;;;;;;2.13;1.25;;;19.00;99.90;;;;;;4088659;28;20054;-69
2022/06/08 08:25:26;;;;;;;2.70;1.55;;;19.00;99.90;;;;;;4093114;28;20102;-67
2022/06/08 08:27:27;;;;;;;2.45;1.42;;;19.10;99.90;;;;;;4093196;28;20632;-68
2022/06/08 08:29:28;;;;;;;2.35;1.40;;;19.10;99.90;;;;;;4093187;28;20051;-68
2022/06/08 08:31:28;;;;;;;3.17;1.70;;;19.20;99.90;;;;;;4091942;28;20402;-67
2022/06/08 08:33:29;;;;;;;3.15;1.58;;;19.30;99.90;;;;;;4092112;28;20126;-70
2022/06/08 08:35:29;;;;;;;4.82;1.30;;;19.30;99.90;;;;;;4075566;29;20063;-69
2022/06/08 08:37:31;;;;;;;6.10;1.40;;;19.40;99.90;;;;;;4093271;28;20071;-70
2022/06/08 08:39:31;;;;;;;4.18;1.67;;;19.50;99.90;;;;;;4096069;28;20044;-70
2022/06/08 08:43:53;;;;;;;2.78;1.20;;;19.70;99.90;;;;;;4094446;29;20109;-69
2022/06/08 08:46:22;;;;;;;6.18;1.50;;;19.80;99.90;;;;;;4095208;28;20490;-69
2022/06/08 08:48:37;;;;;;;8.23;1.83;;;19.90;99.90;;;;;;4092811;28;20054;-69
2022/06/08 08:50:53;;;;;;;5.75;1.75;;;20.00;99.90;;;;;;4094182;28;20039;-70
2022/06/08 08:53:09;;;;;;;3.67;1.60;;;20.00;99.90;;;;;;4093890;28;20118;-70
2022/06/08 08:55:30;;;;;;;5.20;1.90;;;20.10;99.90;;;;;;4075923;28;20035;-70
2022/06/08 08:57:41;;;;;;;6.13;1.60;;;20.10;99.90;;;;;;4094535;28;20174;-70
2022/06/08 08:59:45;;;;;;;2.25;1.30;;;20.20;99.90;;;;;;4095836;28;20054;-69
2022/06/08 09:01:49;;;;;;;2.45;1.63;;;20.20;99.90;;;;;;4094672;28;20035;-70
2022/06/08 09:03:59;;;;;;;4.15;1.40;;;20.30;99.90;;;;;;4095110;28;20039;-70
2022/06/08 09:06:13;;;;;;;1.92;1.48;;;20.40;99.90;;;;;;4091283;28;20035;-70
2022/06/08 09:08:16;;;;;;;3.38;1.30;;;20.40;99.90;;;;;;4094179;28;20114;-70
2022/06/08 09:10:21;;;;;;;;;;;20.50;99.90;;;;;;4094358;28;20063;-69
2022/06/08 09:12:21;;;;;;;4.07;1.60;;;20.60;99.90;;;;;;4093951;28;19966;-70
2022/06/08 09:14:26;;;;;;;2.53;1.70;;;20.60;99.90;;;;;;4094915;28;20503;-69
2022/06/08 09:16:39;;;;;;;2.45;1.30;;;20.80;99.90;;;;;;4089668;28;20047;-70
2022/06/08 09:18:41;;;;;;;2.80;1.65;;;20.80;99.90;;;;;;4093379;28;20036;-69
2022/06/08 09:20:42;;;;;;;3.30;1.40;;;20.90;99.90;;;;;;4095650;28;20101;-70
2022/06/08 09:22:48;;;;;;;2.95;1.40;;;20.90;99.90;;;;;;4094597;28;20046;-70
2022/06/08 09:25:22;;;;;;;4.10;1.67;;;21.00;99.90;;;;;;4094527;28;20597;-70
2022/06/08 09:27:28;;;;;;;2.28;1.52;;;21.00;99.90;;;;;;4095280;28;20351;-69
2022/06/08 09:29:29;;;;;;;4.30;1.80;;;21.00;99.90;;;;;;4094933;28;20130;-70
2022/06/08 09:31:33;;;;;;;4.32;1.73;;;21.00;99.90;;;;;;4094488;28;20126;-70
2022/06/08 09:33:37;;;;;;;5.45;1.55;;;21.00;99.90;;;;;;4077715;29;20040;-70
2022/06/08 09:36:00;;;;;;;3.42;1.45;;;21.00;99.90;;;;;;4094797;28;20424;-70
2022/06/08 09:38:10;;;;;;;5.45;1.63;;;21.00;99.90;;;;;;4094637;28;20122;-70
2022/06/08 09:42:56;;;;;;;3.88;1.45;;;21.10;99.90;;;;;;4093969;28;20032;-70
2022/06/08 09:45:06;;;;;;;4.03;1.40;;;21.10;99.90;;;;;;4094779;28;20039;-69
2022/06/08 09:52:31;;;;;;;2.03;1.20;;;21.30;99.90;;;;;;4094287;28;20032;-70
2022/06/08 09:54:44;;;;;;;8.00;1.92;;;21.30;99.90;;;;;;4075778;29;20815;-70
2022/06/08 09:56:59;;;;;;;7.05;1.60;;;21.30;99.90;;;;;;4093941;28;20042;-70
2022/06/08 09:59:46;;;;;;;6.47;1.48;;;21.30;99.90;;;;;;4094736;28;20054;-71
2022/06/08 10:02:01;;;;;;;7.78;1.55;;;21.30;99.90;;;;;;4061445;28;20039;-71
2022/06/08 10:04:27;;;;;;;3.67;1.50;;;21.30;99.90;;;;;;4094791;28;20457;-70
2022/06/08 10:07:06;;;;;;;4.75;1.55;;;21.20;99.90;;;;;;4094715;28;20974;-71
2022/06/08 10:09:21;;;;;;;6.60;1.35;;;21.20;99.90;;;;;;4094218;28;20031;-70
2022/06/08 10:11:34;;;;;;;6.55;1.88;;;21.10;99.90;;;;;;4094611;28;20441;-69
2022/06/08 10:13:41;;;;;;;6.15;2.03;;;21.00;99.90;;;;;;4097680;29;20042;-70
2022/06/08 10:16:01;;;;;;;7.63;2.00;;;20.90;99.90;;;;;;4101372;28;20031;-69
2022/06/08 10:18:18;;;;;;;7.63;1.63;;;20.80;99.90;;;;;;4094403;28;20190;-69
2022/06/08 10:20:36;;;;;;;6.10;1.60;;;20.70;99.90;;;;;;4093547;28;20039;-70
2022/06/08 10:22:43;;;;;;;4.13;1.73;;;20.50;99.90;;;;;;4094374;28;20094;-69
2022/06/08 10:25:02;;;;;;;3.33;1.23;;;20.30;99.90;;;;;;4093707;28;20414;-69
2022/06/08 10:27:13;;;;;;;6.22;1.77;;;20.20;99.90;;;;;;4091556;28;20040;-69
2022/06/08 10:29:21;;;;;;;5.53;1.75;;;20.20;99.90;;;;;;4095921;28;20066;-69
2022/06/08 10:31:23;;;;;;;5.35;1.65;;;19.90;99.90;;;;;;4077173;28;20063;-69
2022/06/08 10:33:31;;;;;;;;;;;20.00;99.90;;;;;;4095026;28;20040;-70
2022/06/08 10:35:41;;;;;;;6.13;1.58;;;19.90;99.90;;;;;;4093727;28;19942;-69
2022/06/08 10:37:43;;;;;;;3.90;1.70;;;19.70;99.90;;;;;;4092797;28;20062;-70
2022/06/08 10:39:46;;;;;;;4.63;1.55;;;19.70;99.90;;;;;;4094853;28;20051;-69
2022/06/08 10:44:44;;;;;;;3.30;1.40;;;19.60;99.90;;;;;;4093538;28;19910;-68
2022/06/08 10:46:47;;;;;;;9.38;1.75;;;19.50;99.90;;;;;;4092719;28;20050;-69
2022/06/08 10:48:50;;;;;;;7.68;2.20;;;19.40;99.90;;;;;;4094813;28;20054;-69
2022/06/08 10:51:22;;;;;;;5.82;2.03;;;19.40;99.90;;;;;;4093849;28;20027;-69
2022/06/08 10:55:46;;;;;;;9.82;2.10;;;19.30;99.90;;;;;;4090989;28;20126;-69
2022/06/08 10:57:49;;;;;;;6.93;2.35;;;19.20;99.90;;;;;;4094001;28;20047;-69
2022/06/08 11:00:19;;;;;;;4.70;2.40;;;19.20;99.90;;;;;;4094669;28;20153;-69
2022/06/08 11:02:43;;;;;;;2.05;1.58;;;19.20;99.90;;;;;;4092854;28;20039;-69
2022/06/08 11:05:28;;;;;;;6.80;1.75;;;19.30;99.90;;;;;;4091854;28;20043;-69
2022/06/08 11:08:01;;;;;;;4.60;1.58;;;19.30;99.90;;;;;;4091438;28;20398;-69
2022/06/08 11:10:03;;;;;;;4.28;1.48;;;19.30;99.90;;;;;;4091562;28;20074;-69
2022/06/08 11:12:04;;;;;;;5.13;1.70;;;19.30;99.90;;;;;;4093712;28;20131;-69
2022/06/08 11:14:43;;;;;;;4.43;1.73;;;19.30;99.90;;;;;;4092882;28;20070;-69